sensor_id;sensor_type;location;lat;lon;timestamp;P1;P2;P0
64861;PMS5003;62652;42.274;-71.436;2023-10-19T00:00:00;7.43;7.07;4.60
64861;PMS5003;62652;42.274;-71.436;2023-10-19T00:01:00;6.23;5.80;4.20
64861;PMS5003;62652;42.274;-71.436;2023-10-19T00:02:00;6.77;6.77;5.07
64861;PMS5003;62652;42.274;-71.436;2023-10-19T00:03:00;6.57;6.57;4.93
64861;PMS5003;62652;42.274;-71.436;2023-10-19T00:04:00;7.27;5.77;4.00
64861;PMS5003;62652;42.274;-71.436;2023-10-19T00:05:00;6.63;6.37;4.90
64861;PMS5003;62652;42.274;-71.436;2023-10-19T00:06:00;8.97;8.00;5.90
64861;PMS5003;62652;42.274;-71.436;2023-10-19T00:07:00;7.53;6.97;4.23
64861;PMS5003;62652;42.274;-71.436;2023-10-19T00:08:00;7.43;7.43;5.10
64861;PMS5003;62652;42.274;-71.436;2023-10-19T00:09:00;7.17;6.47;4.93
64861;PMS5003;62652;42.274;-71.436;2023-10-19T00:10:00;9.63;8.63;5.43
64861;PMS5003;62652;42.274;-71.436;2023-10-19T00:11:00;6.67;6.67;4.00
64861;PMS5003;62652;42.274;-71.436;2023-10-19T00:12:00;6.20;6.00;4.00
64861;PMS5003;62652;42.274;-71.436;2023-10-19T00:13:00;8.47;7.90;5.60
64861;PMS5003;62652;42.274;-71.436;2023-10-19T00:14:00;7.10;6.67;4.60
64861;PMS5003;62652;42.274;-71.436;2023-10-19T00:15:00;6.20;6.20;4.10
64861;PMS5003;62652;42.274;-71.436;2023-10-19T00:16:00;5.20;5.20;3.90
64861;PMS5003;62652;42.274;-71.436;2023-10-19T00:17:00;6.20;5.93;4.20
64861;PMS5003;62652;42.274;-71.436;2023-10-19T00:18:00;5.13;5.13;4.50
64861;PMS5003;62652;42.274;-71.436;2023-10-19T00:19:00;6.13;5.93;3.83
64861;PMS5003;62652;42.274;-71.436;2023-10-19T00:20:00;8.27;7.60;4.97
64861;PMS5003;62652;42.274;-71.436;2023-10-19T00:21:00;5.90;5.90;4.00
64861;PMS5003;62652;42.274;-71.436;2023-10-19T00:22:00;4.93;4.93;4.03
64861;PMS5003;62652;42.274;-71.436;2023-10-19T00:23:00;5.53;5.53;4.33
64861;PMS5003;62652;42.274;-71.436;2023-10-19T00:24:00;7.07;6.73;4.67
64861;PMS5003;62652;42.274;-71.436;2023-10-19T00:25:00;6.50;6.30;4.73
64861;PMS5003;62652;42.274;-71.436;2023-10-19T00:26:02;7.53;6.90;5.27
64861;PMS5003;62652;42.274;-71.436;2023-10-19T00:27:00;8.17;8.17;5.67
64861;PMS5003;62652;42.274;-71.436;2023-10-19T00:28:00;7.83;7.23;4.90
64861;PMS5003;62652;42.274;-71.436;2023-10-19T00:29:00;8.97;8.20;6.10
64861;PMS5003;62652;42.274;-71.436;2023-10-19T00:30:00;11.00;9.27;5.97
64861;PMS5003;62652;42.274;-71.436;2023-10-19T00:31:00;7.30;7.07;4.83
64861;PMS5003;62652;42.274;-71.436;2023-10-19T00:32:00;6.17;6.17;4.20
64861;PMS5003;62652;42.274;-71.436;2023-10-19T00:33:00;7.03;6.87;5.23
64861;PMS5003;62652;42.274;-71.436;2023-10-19T00:34:00;6.77;6.33;5.13
64861;PMS5003;62652;42.274;-71.436;2023-10-19T00:35:00;6.53;6.23;4.03
64861;PMS5003;62652;42.274;-71.436;2023-10-19T00:36:00;5.73;5.73;4.63
64861;PMS5003;62652;42.274;-71.436;2023-10-19T00:37:00;7.47;6.67;4.40
64861;PMS5003;62652;42.274;-71.436;2023-10-19T00:38:00;7.50;6.93;4.47
64861;PMS5003;62652;42.274;-71.436;2023-10-19T00:39:00;7.07;6.47;4.93
64861;PMS5003;62652;42.274;-71.436;2023-10-19T00:40:00;7.57;6.90;4.80
64861;PMS5003;62652;42.274;-71.436;2023-10-19T00:41:00;8.63;7.63;4.53
64861;PMS5003;62652;42.274;-71.436;2023-10-19T00:42:00;6.37;6.37;4.03
64861;PMS5003;62652;42.274;-71.436;2023-10-19T00:43:02;6.73;6.43;4.43
64861;PMS5003;62652;42.274;-71.436;2023-10-19T00:44:00;8.80;8.70;7.23
64861;PMS5003;62652;42.274;-71.436;2023-10-19T00:45:00;8.63;8.30;6.67
64861;PMS5003;62652;42.274;-71.436;2023-10-19T00:46:00;10.50;10.40;7.60
64861;PMS5003;62652;42.274;-71.436;2023-10-19T00:47:00;9.23;9.17;6.53
64861;PMS5003;62652;42.274;-71.436;2023-10-19T00:48:00;5.80;5.80;4.87
64861;PMS5003;62652;42.274;-71.436;2023-10-19T00:49:01;6.90;6.37;4.83
64861;PMS5003;62652;42.274;-71.436;2023-10-19T00:50:00;6.47;6.20;4.97
64861;PMS5003;62652;42.274;-71.436;2023-10-19T00:51:00;6.00;6.00;4.30
64861;PMS5003;62652;42.274;-71.436;2023-10-19T00:52:00;7.17;6.53;4.80
64861;PMS5003;62652;42.274;-71.436;2023-10-19T00:53:00;7.40;7.40;4.43
64861;PMS5003;62652;42.274;-71.436;2023-10-19T00:54:02;8.83;6.07;4.03
64861;PMS5003;62652;42.274;-71.436;2023-10-19T00:55:00;5.97;5.33;3.93
64861;PMS5003;62652;42.274;-71.436;2023-10-19T00:56:01;6.30;6.27;4.70
64861;PMS5003;62652;42.274;-71.436;2023-10-19T00:57:00;7.80;5.43;3.80
64861;PMS5003;62652;42.274;-71.436;2023-10-19T00:58:00;6.53;6.43;5.03
64861;PMS5003;62652;42.274;-71.436;2023-10-19T00:59:00;10.60;10.60;8.67
64861;PMS5003;62652;42.274;-71.436;2023-10-19T01:00:00;7.67;7.30;6.20
64861;PMS5003;62652;42.274;-71.436;2023-10-19T01:01:00;8.43;8.23;6.60
64861;PMS5003;62652;42.274;-71.436;2023-10-19T01:02:00;9.47;7.93;6.13
64861;PMS5003;62652;42.274;-71.436;2023-10-19T01:03:00;6.67;6.67;5.00
64861;PMS5003;62652;42.274;-71.436;2023-10-19T01:04:00;8.87;8.37;6.10
64861;PMS5003;62652;42.274;-71.436;2023-10-19T01:05:00;7.97;7.97;5.97
64861;PMS5003;62652;42.274;-71.436;2023-10-19T01:06:00;8.80;8.80;5.70
64861;PMS5003;62652;42.274;-71.436;2023-10-19T01:07:00;5.80;5.30;4.17
64861;PMS5003;62652;42.274;-71.436;2023-10-19T01:08:00;4.97;4.97;3.80
64861;PMS5003;62652;42.274;-71.436;2023-10-19T01:09:00;7.50;6.90;5.53
64861;PMS5003;62652;42.274;-71.436;2023-10-19T01:10:01;7.37;7.00;5.63
64861;PMS5003;62652;42.274;-71.436;2023-10-19T01:11:00;6.97;6.73;5.07
64861;PMS5003;62652;42.274;-71.436;2023-10-19T01:12:00;10.40;9.57;8.30
64861;PMS5003;62652;42.274;-71.436;2023-10-19T01:13:00;11.90;11.47;9.07
64861;PMS5003;62652;42.274;-71.436;2023-10-19T01:14:01;7.23;7.17;5.53
64861;PMS5003;62652;42.274;-71.436;2023-10-19T01:15:01;7.47;7.47;6.00
64861;PMS5003;62652;42.274;-71.436;2023-10-19T01:16:00;8.00;7.80;5.60
64861;PMS5003;62652;42.274;-71.436;2023-10-19T01:17:00;7.43;7.43;5.43
64861;PMS5003;62652;42.274;-71.436;2023-10-19T01:18:00;10.80;10.80;9.37
64861;PMS5003;62652;42.274;-71.436;2023-10-19T01:19:00;13.63;13.50;10.37
64861;PMS5003;62652;42.274;-71.436;2023-10-19T01:20:00;9.73;9.73;8.10
64861;PMS5003;62652;42.274;-71.436;2023-10-19T01:21:00;7.33;7.33;5.30
64861;PMS5003;62652;42.274;-71.436;2023-10-19T01:22:00;6.40;6.20;4.00
64861;PMS5003;62652;42.274;-71.436;2023-10-19T01:23:01;7.50;7.00;5.80
64861;PMS5003;62652;42.274;-71.436;2023-10-19T01:24:00;6.43;5.93;4.53
64861;PMS5003;62652;42.274;-71.436;2023-10-19T01:25:02;6.70;6.70;4.37
64861;PMS5003;62652;42.274;-71.436;2023-10-19T01:26:00;5.93;5.60;4.37
64861;PMS5003;62652;42.274;-71.436;2023-10-19T01:27:00;6.93;6.43;4.40
64861;PMS5003;62652;42.274;-71.436;2023-10-19T01:28:01;7.43;6.67;4.53
64861;PMS5003;62652;42.274;-71.436;2023-10-19T01:29:00;6.27;6.27;4.33
64861;PMS5003;62652;42.274;-71.436;2023-10-19T01:30:00;7.53;6.77;4.60
64861;PMS5003;62652;42.274;-71.436;2023-10-19T01:31:00;5.63;4.73;2.90
64861;PMS5003;62652;42.274;-71.436;2023-10-19T01:32:00;7.73;7.73;5.33
64861;PMS5003;62652;42.274;-71.436;2023-10-19T01:33:00;7.27;7.20;4.90
64861;PMS5003;62652;42.274;-71.436;2023-10-19T01:34:00;7.07;6.07;4.00
64861;PMS5003;62652;42.274;-71.436;2023-10-19T01:35:00;6.40;5.97;4.57
64861;PMS5003;62652;42.274;-71.436;2023-10-19T01:36:00;8.83;8.83;5.80
64861;PMS5003;62652;42.274;-71.436;2023-10-19T01:37:00;7.33;7.17;4.87
64861;PMS5003;62652;42.274;-71.436;2023-10-19T01:38:00;6.73;6.50;5.10
64861;PMS5003;62652;42.274;-71.436;2023-10-19T01:39:00;7.40;7.23;5.67
64861;PMS5003;62652;42.274;-71.436;2023-10-19T01:40:00;7.87;7.27;5.47
64861;PMS5003;62652;42.274;-71.436;2023-10-19T01:41:00;8.33;7.70;5.33
64861;PMS5003;62652;42.274;-71.436;2023-10-19T01:42:00;10.87;10.57;6.67
64861;PMS5003;62652;42.274;-71.436;2023-10-19T01:43:00;12.57;11.93;8.57
64861;PMS5003;62652;42.274;-71.436;2023-10-19T01:44:00;11.47;11.23;8.43
64861;PMS5003;62652;42.274;-71.436;2023-10-19T01:45:00;14.30;13.23;9.03
64861;PMS5003;62652;42.274;-71.436;2023-10-19T01:46:00;14.17;13.53;8.73
64861;PMS5003;62652;42.274;-71.436;2023-10-19T01:47:00;13.50;13.00;9.97
64861;PMS5003;62652;42.274;-71.436;2023-10-19T01:48:00;13.47;11.30;7.90
64861;PMS5003;62652;42.274;-71.436;2023-10-19T01:49:01;13.47;12.47;8.93
64861;PMS5003;62652;42.274;-71.436;2023-10-19T01:50:00;13.03;12.23;7.73
64861;PMS5003;62652;42.274;-71.436;2023-10-19T01:51:01;12.10;11.57;7.83
64861;PMS5003;62652;42.274;-71.436;2023-10-19T01:52:00;14.50;13.53;8.97
64861;PMS5003;62652;42.274;-71.436;2023-10-19T01:53:00;14.47;13.03;9.13
64861;PMS5003;62652;42.274;-71.436;2023-10-19T01:54:00;12.03;11.40;7.83
64861;PMS5003;62652;42.274;-71.436;2023-10-19T01:55:00;12.20;11.20;7.37
64861;PMS5003;62652;42.274;-71.436;2023-10-19T01:56:00;14.33;12.70;7.67
64861;PMS5003;62652;42.274;-71.436;2023-10-19T01:57:00;10.90;10.23;7.07
64861;PMS5003;62652;42.274;-71.436;2023-10-19T01:58:00;11.27;11.27;6.97
64861;PMS5003;62652;42.274;-71.436;2023-10-19T01:59:00;12.20;12.20;7.40
64861;PMS5003;62652;42.274;-71.436;2023-10-19T02:00:00;11.10;10.13;6.90
64861;PMS5003;62652;42.274;-71.436;2023-10-19T02:01:00;10.03;9.40;6.40
64861;PMS5003;62652;42.274;-71.436;2023-10-19T02:02:00;8.93;8.93;6.90
64861;PMS5003;62652;42.274;-71.436;2023-10-19T02:03:00;8.03;7.63;5.63
64861;PMS5003;62652;42.274;-71.436;2023-10-19T02:04:01;7.97;7.93;5.47
64861;PMS5003;62652;42.274;-71.436;2023-10-19T02:05:00;6.37;5.93;3.90
64861;PMS5003;62652;42.274;-71.436;2023-10-19T02:06:00;6.60;6.23;5.00
64861;PMS5003;62652;42.274;-71.436;2023-10-19T02:07:00;6.50;5.73;4.17
64861;PMS5003;62652;42.274;-71.436;2023-10-19T02:08:00;9.07;8.93;5.50
64861;PMS5003;62652;42.274;-71.436;2023-10-19T02:09:01;7.20;7.20;6.00
64861;PMS5003;62652;42.274;-71.436;2023-10-19T02:10:00;10.27;9.67;6.07
64861;PMS5003;62652;42.274;-71.436;2023-10-19T02:11:00;6.83;6.23;4.47
64861;PMS5003;62652;42.274;-71.436;2023-10-19T02:12:00;8.33;6.87;5.10
64861;PMS5003;62652;42.274;-71.436;2023-10-19T02:13:00;7.50;7.50;5.27
64861;PMS5003;62652;42.274;-71.436;2023-10-19T02:14:00;8.03;7.97;4.87
64861;PMS5003;62652;42.274;-71.436;2023-10-19T02:15:00;6.67;6.67;5.03
64861;PMS5003;62652;42.274;-71.436;2023-10-19T02:16:00;10.23;8.83;6.37
64861;PMS5003;62652;42.274;-71.436;2023-10-19T02:17:00;8.63;7.70;5.60
64861;PMS5003;62652;42.274;-71.436;2023-10-19T02:18:00;7.53;7.53;5.13
64861;PMS5003;62652;42.274;-71.436;2023-10-19T02:19:00;6.60;6.60;4.53
64861;PMS5003;62652;42.274;-71.436;2023-10-19T02:20:00;5.63;5.37;4.33
64861;PMS5003;62652;42.274;-71.436;2023-10-19T02:21:00;9.50;9.00;6.80
64861;PMS5003;62652;42.274;-71.436;2023-10-19T02:22:01;8.43;8.33;6.17
64861;PMS5003;62652;42.274;-71.436;2023-10-19T02:23:00;6.77;6.33;4.57
64861;PMS5003;62652;42.274;-71.436;2023-10-19T02:24:00;8.90;8.03;5.07
64861;PMS5003;62652;42.274;-71.436;2023-10-19T02:25:00;7.30;7.27;5.07
64861;PMS5003;62652;42.274;-71.436;2023-10-19T02:26:01;7.43;7.43;5.93
64861;PMS5003;62652;42.274;-71.436;2023-10-19T02:27:00;8.70;8.37;5.43
64861;PMS5003;62652;42.274;-71.436;2023-10-19T02:28:00;7.13;7.13;5.50
64861;PMS5003;62652;42.274;-71.436;2023-10-19T02:29:00;8.57;8.27;5.60
64861;PMS5003;62652;42.274;-71.436;2023-10-19T02:30:00;7.93;7.53;5.50
64861;PMS5003;62652;42.274;-71.436;2023-10-19T02:31:00;7.80;7.80;5.57
64861;PMS5003;62652;42.274;-71.436;2023-10-19T02:32:00;7.63;7.63;5.70
64861;PMS5003;62652;42.274;-71.436;2023-10-19T02:33:00;8.23;7.93;5.40
64861;PMS5003;62652;42.274;-71.436;2023-10-19T02:34:00;7.50;6.97;6.03
64861;PMS5003;62652;42.274;-71.436;2023-10-19T02:35:00;8.37;8.27;5.93
64861;PMS5003;62652;42.274;-71.436;2023-10-19T02:36:00;7.67;7.47;5.73
64861;PMS5003;62652;42.274;-71.436;2023-10-19T02:37:00;8.53;8.10;5.57
64861;PMS5003;62652;42.274;-71.436;2023-10-19T02:38:00;8.23;8.20;6.27
64861;PMS5003;62652;42.274;-71.436;2023-10-19T02:39:01;8.00;7.53;5.03
64861;PMS5003;62652;42.274;-71.436;2023-10-19T02:40:00;7.83;7.83;5.70
64861;PMS5003;62652;42.274;-71.436;2023-10-19T02:41:00;9.57;9.27;5.90
64861;PMS5003;62652;42.274;-71.436;2023-10-19T02:42:00;8.23;7.80;6.00
64861;PMS5003;62652;42.274;-71.436;2023-10-19T02:43:00;7.83;7.10;5.10
64861;PMS5003;62652;42.274;-71.436;2023-10-19T02:44:00;8.27;8.27;5.57
64861;PMS5003;62652;42.274;-71.436;2023-10-19T02:45:00;8.37;8.07;5.70
64861;PMS5003;62652;42.274;-71.436;2023-10-19T02:46:00;7.63;7.23;5.27
64861;PMS5003;62652;42.274;-71.436;2023-10-19T02:47:00;8.23;8.13;5.80
64861;PMS5003;62652;42.274;-71.436;2023-10-19T02:48:00;7.00;7.00;4.97
64861;PMS5003;62652;42.274;-71.436;2023-10-19T02:49:00;7.60;7.53;4.93
64861;PMS5003;62652;42.274;-71.436;2023-10-19T02:50:00;8.63;7.87;6.23
64861;PMS5003;62652;42.274;-71.436;2023-10-19T02:51:00;9.70;9.00;6.70
64861;PMS5003;62652;42.274;-71.436;2023-10-19T02:52:00;7.87;7.87;5.90
64861;PMS5003;62652;42.274;-71.436;2023-10-19T02:53:00;9.63;8.80;7.00
64861;PMS5003;62652;42.274;-71.436;2023-10-19T02:54:00;9.60;8.90;6.37
64861;PMS5003;62652;42.274;-71.436;2023-10-19T02:55:00;11.20;10.33;7.00
64861;PMS5003;62652;42.274;-71.436;2023-10-19T02:56:08;11.27;10.67;7.17
64861;PMS5003;62652;42.274;-71.436;2023-10-19T02:57:00;9.73;9.63;6.97
64861;PMS5003;62652;42.274;-71.436;2023-10-19T02:58:00;14.03;13.63;7.70
64861;PMS5003;62652;42.274;-71.436;2023-10-19T02:59:01;10.33;10.33;7.63
64861;PMS5003;62652;42.274;-71.436;2023-10-19T03:00:00;9.80;9.80;7.07
64861;PMS5003;62652;42.274;-71.436;2023-10-19T03:01:00;10.07;9.57;6.57
64861;PMS5003;62652;42.274;-71.436;2023-10-19T03:02:00;12.30;10.27;7.00
64861;PMS5003;62652;42.274;-71.436;2023-10-19T03:03:00;10.67;9.33;7.40
64861;PMS5003;62652;42.274;-71.436;2023-10-19T03:04:01;10.17;9.77;6.70
64861;PMS5003;62652;42.274;-71.436;2023-10-19T03:05:00;10.77;10.23;6.77
64861;PMS5003;62652;42.274;-71.436;2023-10-19T03:06:00;9.77;9.20;6.20
64861;PMS5003;62652;42.274;-71.436;2023-10-19T03:07:00;10.83;9.90;6.90
64861;PMS5003;62652;42.274;-71.436;2023-10-19T03:08:01;12.83;12.37;8.97
64861;PMS5003;62652;42.274;-71.436;2023-10-19T03:09:04;9.87;9.77;7.33
64861;PMS5003;62652;42.274;-71.436;2023-10-19T03:10:00;11.73;11.13;7.90
64861;PMS5003;62652;42.274;-71.436;2023-10-19T03:11:00;11.90;10.67;7.30
64861;PMS5003;62652;42.274;-71.436;2023-10-19T03:12:00;11.23;10.13;5.17
64861;PMS5003;62652;42.274;-71.436;2023-10-19T03:13:00;12.20;11.83;7.37
64861;PMS5003;62652;42.274;-71.436;2023-10-19T03:14:00;12.67;11.90;7.50
64861;PMS5003;62652;42.274;-71.436;2023-10-19T03:15:00;11.27;11.17;6.77
64861;PMS5003;62652;42.274;-71.436;2023-10-19T03:16:00;9.63;9.63;6.90
64861;PMS5003;62652;42.274;-71.436;2023-10-19T03:17:00;11.20;11.03;7.60
64861;PMS5003;62652;42.274;-71.436;2023-10-19T03:18:00;8.97;8.97;5.93
64861;PMS5003;62652;42.274;-71.436;2023-10-19T03:19:00;10.33;10.07;6.43
64861;PMS5003;62652;42.274;-71.436;2023-10-19T03:20:00;10.93;9.87;6.63
64861;PMS5003;62652;42.274;-71.436;2023-10-19T03:21:01;10.57;10.00;6.50
64861;PMS5003;62652;42.274;-71.436;2023-10-19T03:22:00;10.97;9.63;7.00
64861;PMS5003;62652;42.274;-71.436;2023-10-19T03:23:00;12.10;10.27;7.20
64861;PMS5003;62652;42.274;-71.436;2023-10-19T03:24:00;8.77;8.57;5.60
64861;PMS5003;62652;42.274;-71.436;2023-10-19T03:25:00;9.73;9.50;5.73
64861;PMS5003;62652;42.274;-71.436;2023-10-19T03:26:00;9.30;9.30;7.43
64861;PMS5003;62652;42.274;-71.436;2023-10-19T03:27:00;9.33;9.33;6.87
64861;PMS5003;62652;42.274;-71.436;2023-10-19T03:28:00;9.03;8.97;6.87
64861;PMS5003;62652;42.274;-71.436;2023-10-19T03:29:00;8.13;7.77;5.37
64861;PMS5003;62652;42.274;-71.436;2023-10-19T03:30:00;8.60;8.60;6.53
64861;PMS5003;62652;42.274;-71.436;2023-10-19T03:31:00;8.33;8.20;6.07
64861;PMS5003;62652;42.274;-71.436;2023-10-19T03:32:01;10.27;9.33;6.37
64861;PMS5003;62652;42.274;-71.436;2023-10-19T03:33:00;9.00;9.00;6.23
64861;PMS5003;62652;42.274;-71.436;2023-10-19T03:34:00;8.43;7.57;5.00
64861;PMS5003;62652;42.274;-71.436;2023-10-19T03:35:00;8.10;8.10;5.30
64861;PMS5003;62652;42.274;-71.436;2023-10-19T03:36:00;8.07;7.90;5.80
64861;PMS5003;62652;42.274;-71.436;2023-10-19T03:37:00;7.70;7.23;4.87
64861;PMS5003;62652;42.274;-71.436;2023-10-19T03:38:00;9.23;9.23;5.90
64861;PMS5003;62652;42.274;-71.436;2023-10-19T03:39:00;6.90;6.90;5.53
64861;PMS5003;62652;42.274;-71.436;2023-10-19T03:40:00;8.70;8.03;5.40
64861;PMS5003;62652;42.274;-71.436;2023-10-19T03:41:00;8.20;8.17;5.07
64861;PMS5003;62652;42.274;-71.436;2023-10-19T03:42:00;8.10;7.13;5.03
64861;PMS5003;62652;42.274;-71.436;2023-10-19T03:43:00;7.83;7.53;5.93
64861;PMS5003;62652;42.274;-71.436;2023-10-19T03:44:00;9.43;8.50;4.83
64861;PMS5003;62652;42.274;-71.436;2023-10-19T03:45:00;9.53;8.37;6.33
64861;PMS5003;62652;42.274;-71.436;2023-10-19T03:46:02;9.90;8.60;6.17
64861;PMS5003;62652;42.274;-71.436;2023-10-19T03:47:00;9.27;8.10;6.90
64861;PMS5003;62652;42.274;-71.436;2023-10-19T03:48:00;10.20;9.03;5.50
64861;PMS5003;62652;42.274;-71.436;2023-10-19T03:49:00;10.27;10.27;7.30
64861;PMS5003;62652;42.274;-71.436;2023-10-19T03:50:00;9.10;9.10;6.63
64861;PMS5003;62652;42.274;-71.436;2023-10-19T03:51:00;6.43;6.17;4.13
64861;PMS5003;62652;42.274;-71.436;2023-10-19T03:52:00;6.90;6.83;5.30
64861;PMS5003;62652;42.274;-71.436;2023-10-19T03:53:00;6.90;6.90;5.10
64861;PMS5003;62652;42.274;-71.436;2023-10-19T03:54:00;6.53;6.53;5.13
64861;PMS5003;62652;42.274;-71.436;2023-10-19T03:55:00;6.83;6.53;5.03
64861;PMS5003;62652;42.274;-71.436;2023-10-19T03:56:03;7.87;7.57;5.27
64861;PMS5003;62652;42.274;-71.436;2023-10-19T03:57:00;8.97;8.13;5.63
64861;PMS5003;62652;42.274;-71.436;2023-10-19T03:58:00;9.20;8.47;5.60
64861;PMS5003;62652;42.274;-71.436;2023-10-19T03:59:00;8.73;8.73;5.67
64861;PMS5003;62652;42.274;-71.436;2023-10-19T04:00:00;7.37;6.90;5.33
64861;PMS5003;62652;42.274;-71.436;2023-10-19T04:01:00;7.53;7.37;5.00
64861;PMS5003;62652;42.274;-71.436;2023-10-19T04:02:00;8.30;7.70;5.73
64861;PMS5003;62652;42.274;-71.436;2023-10-19T04:03:00;9.33;8.50;6.10
64861;PMS5003;62652;42.274;-71.436;2023-10-19T04:04:00;7.17;6.37;3.93
64861;PMS5003;62652;42.274;-71.436;2023-10-19T04:05:00;7.97;6.80;4.67
64861;PMS5003;62652;42.274;-71.436;2023-10-19T04:06:00;8.53;8.00;6.70
64861;PMS5003;62652;42.274;-71.436;2023-10-19T04:07:00;6.53;6.23;4.47
64861;PMS5003;62652;42.274;-71.436;2023-10-19T04:08:00;6.43;6.43;5.07
64861;PMS5003;62652;42.274;-71.436;2023-10-19T04:09:00;10.47;9.53;5.77
64861;PMS5003;62652;42.274;-71.436;2023-10-19T04:10:00;7.17;7.03;5.00
64861;PMS5003;62652;42.274;-71.436;2023-10-19T04:11:00;8.33;8.33;5.90
64861;PMS5003;62652;42.274;-71.436;2023-10-19T04:12:00;6.23;6.23;4.40
64861;PMS5003;62652;42.274;-71.436;2023-10-19T04:13:00;6.07;6.07;4.27
64861;PMS5003;62652;42.274;-71.436;2023-10-19T04:14:00;6.73;6.50;5.03
64861;PMS5003;62652;42.274;-71.436;2023-10-19T04:15:01;7.37;6.77;4.57
64861;PMS5003;62652;42.274;-71.436;2023-10-19T04:16:00;9.37;9.17;4.87
64861;PMS5003;62652;42.274;-71.436;2023-10-19T04:17:00;8.53;7.93;5.10
64861;PMS5003;62652;42.274;-71.436;2023-10-19T04:18:00;8.07;8.07;5.20
64861;PMS5003;62652;42.274;-71.436;2023-10-19T04:19:00;6.77;6.77;4.93
64861;PMS5003;62652;42.274;-71.436;2023-10-19T04:20:00;6.37;6.37;4.57
64861;PMS5003;62652;42.274;-71.436;2023-10-19T04:21:00;8.10;7.83;6.17
64861;PMS5003;62652;42.274;-71.436;2023-10-19T04:22:00;7.17;6.97;4.80
64861;PMS5003;62652;42.274;-71.436;2023-10-19T04:23:00;7.97;7.20;5.10
64861;PMS5003;62652;42.274;-71.436;2023-10-19T04:24:00;8.07;7.60;5.47
64861;PMS5003;62652;42.274;-71.436;2023-10-19T04:25:00;6.63;6.63;4.97
64861;PMS5003;62652;42.274;-71.436;2023-10-19T04:26:00;7.27;6.90;4.67
64861;PMS5003;62652;42.274;-71.436;2023-10-19T04:27:00;8.07;7.20;4.13
64861;PMS5003;62652;42.274;-71.436;2023-10-19T04:28:00;7.57;7.50;5.30
64861;PMS5003;62652;42.274;-71.436;2023-10-19T04:29:00;8.63;8.57;6.87
64861;PMS5003;62652;42.274;-71.436;2023-10-19T04:30:00;7.33;7.13;5.10
64861;PMS5003;62652;42.274;-71.436;2023-10-19T04:31:00;7.67;7.67;5.10
64861;PMS5003;62652;42.274;-71.436;2023-10-19T04:32:00;7.93;6.97;5.20
64861;PMS5003;62652;42.274;-71.436;2023-10-19T04:33:00;8.70;8.47;5.37
64861;PMS5003;62652;42.274;-71.436;2023-10-19T04:34:00;7.33;6.47;5.30
64861;PMS5003;62652;42.274;-71.436;2023-10-19T04:35:00;7.93;7.67;5.57
64861;PMS5003;62652;42.274;-71.436;2023-10-19T04:36:00;8.47;8.10;4.97
64861;PMS5003;62652;42.274;-71.436;2023-10-19T04:37:00;7.53;7.23;4.40
64861;PMS5003;62652;42.274;-71.436;2023-10-19T04:38:00;5.97;5.97;5.10
64861;PMS5003;62652;42.274;-71.436;2023-10-19T04:39:00;6.23;6.23;4.83
64861;PMS5003;62652;42.274;-71.436;2023-10-19T04:40:00;7.97;7.57;5.70
64861;PMS5003;62652;42.274;-71.436;2023-10-19T04:41:04;6.87;6.87;5.10
64861;PMS5003;62652;42.274;-71.436;2023-10-19T04:42:00;6.90;6.73;4.40
64861;PMS5003;62652;42.274;-71.436;2023-10-19T04:43:01;8.03;6.77;4.87
64861;PMS5003;62652;42.274;-71.436;2023-10-19T04:44:00;7.23;6.87;4.97
64861;PMS5003;62652;42.274;-71.436;2023-10-19T04:45:00;8.33;7.80;4.87
64861;PMS5003;62652;42.274;-71.436;2023-10-19T04:46:00;7.90;7.30;5.10
64861;PMS5003;62652;42.274;-71.436;2023-10-19T04:47:00;5.93;5.17;3.33
64861;PMS5003;62652;42.274;-71.436;2023-10-19T04:48:00;7.13;6.60;4.77
64861;PMS5003;62652;42.274;-71.436;2023-10-19T04:49:00;8.00;8.00;5.93
64861;PMS5003;62652;42.274;-71.436;2023-10-19T04:50:00;8.43;8.43;5.43
64861;PMS5003;62652;42.274;-71.436;2023-10-19T04:51:00;6.80;6.30;5.23
64861;PMS5003;62652;42.274;-71.436;2023-10-19T04:52:00;7.10;6.17;4.57
64861;PMS5003;62652;42.274;-71.436;2023-10-19T04:53:00;6.37;6.13;5.13
64861;PMS5003;62652;42.274;-71.436;2023-10-19T04:54:00;6.73;6.30;4.67
64861;PMS5003;62652;42.274;-71.436;2023-10-19T04:55:00;6.83;6.83;5.50
64861;PMS5003;62652;42.274;-71.436;2023-10-19T04:56:00;8.20;8.10;5.77
64861;PMS5003;62652;42.274;-71.436;2023-10-19T04:57:00;6.60;6.60;4.13
64861;PMS5003;62652;42.274;-71.436;2023-10-19T04:58:00;6.30;6.30;5.07
64861;PMS5003;62652;42.274;-71.436;2023-10-19T04:59:00;7.70;7.70;4.97
64861;PMS5003;62652;42.274;-71.436;2023-10-19T05:00:00;6.77;6.10;4.07
64861;PMS5003;62652;42.274;-71.436;2023-10-19T05:01:00;6.40;5.73;4.30
64861;PMS5003;62652;42.274;-71.436;2023-10-19T05:02:00;6.37;6.37;3.97
64861;PMS5003;62652;42.274;-71.436;2023-10-19T05:03:00;8.83;8.83;5.67
64861;PMS5003;62652;42.274;-71.436;2023-10-19T05:04:00;6.30;6.30;3.90
64861;PMS5003;62652;42.274;-71.436;2023-10-19T05:05:00;6.07;5.87;4.17
64861;PMS5003;62652;42.274;-71.436;2023-10-19T05:06:00;6.73;6.37;5.13
64861;PMS5003;62652;42.274;-71.436;2023-10-19T05:07:00;6.20;5.53;4.47
64861;PMS5003;62652;42.274;-71.436;2023-10-19T05:08:00;6.87;6.87;4.77
64861;PMS5003;62652;42.274;-71.436;2023-10-19T05:09:00;6.23;6.23;4.83
64861;PMS5003;62652;42.274;-71.436;2023-10-19T05:10:00;6.37;6.27;3.97
64861;PMS5003;62652;42.274;-71.436;2023-10-19T05:11:01;6.07;5.40;3.97
64861;PMS5003;62652;42.274;-71.436;2023-10-19T05:12:00;4.43;4.37;3.87
64861;PMS5003;62652;42.274;-71.436;2023-10-19T05:13:00;5.10;4.60;3.23
64861;PMS5003;62652;42.274;-71.436;2023-10-19T05:14:00;6.33;5.00;3.80
64861;PMS5003;62652;42.274;-71.436;2023-10-19T05:15:00;5.23;5.23;4.30
64861;PMS5003;62652;42.274;-71.436;2023-10-19T05:16:00;4.50;4.50;3.10
64861;PMS5003;62652;42.274;-71.436;2023-10-19T05:17:00;5.30;4.97;3.33
64861;PMS5003;62652;42.274;-71.436;2023-10-19T05:18:00;7.37;7.37;4.73
64861;PMS5003;62652;42.274;-71.436;2023-10-19T05:19:00;5.30;4.70;3.73
64861;PMS5003;62652;42.274;-71.436;2023-10-19T05:20:00;6.10;5.23;4.00
64861;PMS5003;62652;42.274;-71.436;2023-10-19T05:21:00;5.93;5.50;3.87
64861;PMS5003;62652;42.274;-71.436;2023-10-19T05:22:01;6.33;6.27;4.00
64861;PMS5003;62652;42.274;-71.436;2023-10-19T05:23:00;5.40;5.40;4.10
64861;PMS5003;62652;42.274;-71.436;2023-10-19T05:24:00;6.47;6.00;4.10
64861;PMS5003;62652;42.274;-71.436;2023-10-19T05:25:00;4.63;4.63;3.30
64861;PMS5003;62652;42.274;-71.436;2023-10-19T05:26:00;4.87;4.07;2.93
64861;PMS5003;62652;42.274;-71.436;2023-10-19T05:27:00;4.97;4.97;3.40
64861;PMS5003;62652;42.274;-71.436;2023-10-19T05:28:00;6.87;5.57;4.03
64861;PMS5003;62652;42.274;-71.436;2023-10-19T05:29:00;5.10;5.03;3.33
64861;PMS5003;62652;42.274;-71.436;2023-10-19T05:30:00;4.27;4.27;2.87
64861;PMS5003;62652;42.274;-71.436;2023-10-19T05:31:00;6.03;5.00;3.90
64861;PMS5003;62652;42.274;-71.436;2023-10-19T05:32:00;5.17;4.40;2.70
64861;PMS5003;62652;42.274;-71.436;2023-10-19T05:33:00;5.47;5.47;3.90
64861;PMS5003;62652;42.274;-71.436;2023-10-19T05:34:00;4.90;4.90;4.00
64861;PMS5003;62652;42.274;-71.436;2023-10-19T05:35:00;5.63;5.43;4.43
64861;PMS5003;62652;42.274;-71.436;2023-10-19T05:36:00;6.10;6.03;4.17
64861;PMS5003;62652;42.274;-71.436;2023-10-19T05:37:00;4.63;4.63;2.97
64861;PMS5003;62652;42.274;-71.436;2023-10-19T05:38:00;4.43;4.33;2.83
64861;PMS5003;62652;42.274;-71.436;2023-10-19T05:39:00;4.03;4.03;2.97